Stations météo

réclame
Mon MeteoGroup
Uccle, Belgique (6447): Température de l'air & dewpoint: 15.09.2018 10:00:00 - 21.09.2018 10:00:00 (CEST)Uccle, Belgique (6447): Vitesse du vent & gusts: 15.09.2018 10:00:00 - 21.09.2018 10:00:00 (CEST)Uccle, Belgique (6447): Direction du vent: 15.09.2018 10:00:00 - 21.09.2018 10:00:00 (CEST)Uccle, Belgique (6447): reduced air pressure: 15.09.2018 10:00:00 - 21.09.2018 10:00:00 (CEST)Uccle, Belgique (6447): Ensoleillement: 15.09.2018 10:00:00 - 21.09.2018 10:00:00 (CEST)Uccle, Belgique (6447): Quantités de précipitations: 15.09.2018 10:00:00 - 21.09.2018 10:00:00 (CEST)
Date & Time tt [°C] td [°C] ff [km/h] ff [knt] fx [km/h] fx [knt] dd ppp [hPa] sd [min] rr [mm]
21.09.2018 10:00:00 13,9 12,5 18 10 33 18 SW 1006,0 0 0,7
21.09.2018 09:00:00 14,1 12,1 17 9 66 36 WSW 1005,4 0 2,0
21.09.2018 08:00:00 16,8 14,2 29 16 53 29 SSW 1003,5 0 1,0
21.09.2018 07:00:00 18,1 8,7 26 14 65 35 SSW 1003,0 0 0,1
21.09.2018 06:00:00 18,8 7,5 32 17 51 28 S 1003,6 0 0,0
21.09.2018 05:00:00 18,7 7,7 25 14 55 30 S 1004,0 0 0,0
21.09.2018 04:00:00 19,1 7,5 24 13 50 27 S 1005,2 0 0,0
21.09.2018 03:00:00 19,9 7,0 24 13 50 27 S 1006,3 0 0,0
21.09.2018 02:00:00 20,2 6,5 18 10 38 20 SSW 1007,3 0 0,0
21.09.2018 01:00:00 20,2 6,3 19 10 41 22 SSW 1008,1 0 0,0
21.09.2018 00:00:00 20,1 6,5 19 10 35 19 S 1008,8 0 0,0
20.09.2018 23:00:00 20,2 6,6 20 11 35 19 S 1009,2 0 0,0
20.09.2018 22:00:00 20,4 6,4 19 10 29 16 S 1010,2 0 0,0
20.09.2018 21:00:00 21,3 5,4 14 8 29 16 S 1011,1 0 0,0
20.09.2018 20:00:00 22,2 4,9 18 10 32 17 S 1011,5 0 0,0
20.09.2018 19:00:00 22,9 5,1 19 10 39 21 S 1011,8 12 0,0
20.09.2018 18:00:00 23,6 5,4 20 11 43 23 S 1012,7 41 0,0
20.09.2018 17:00:00 23,7 4,9 21 12 39 21 SSW 1013,5 54 0,0
20.09.2018 16:00:00 24,3 5,6 19 11 43 23 SSW 1014,3 60 0,0
20.09.2018 15:00:00 23,2 5,0 22 12 40 22 SSW 1015,2 60 0,0
20.09.2018 14:00:00 22,4 8,6 22 12 46 25 SSW 1015,9 58 0,0
20.09.2018 13:00:00 21,4 9,8 19 10 39 21 SSW 1016,6 36 0,0
20.09.2018 12:00:00 20,7 10,0 16 9 35 19 SW 1017,1 51 0,0
20.09.2018 11:00:00 19,1 12,1 17 9 33 18 SSW 1017,2 57 0,0
20.09.2018 10:00:00 18,4 13,3 14 7 29 15 SSW 1017,3 60 0,0
20.09.2018 09:00:00 16,8 12,8 11 6 26 14 SSW 1017,2 56 0,0
20.09.2018 08:00:00 16,1 12,3 11 6 22 12 S 1016,9 0 0,0
20.09.2018 07:00:00 16,6 10,1 11 6 23 12 SSW 1017,0 0 0,0
20.09.2018 06:00:00 17,1 8,7 11 6 21 12 SSW 1017,1 0 0,0
20.09.2018 05:00:00 17,2 8,7 11 6 22 12 SSW 1017,3 0 0,0
20.09.2018 04:00:00 17,2 8,2 10 5 22 12 SSW 1017,0 0 0,0
20.09.2018 03:00:00 17,9 8,0 11 6 24 13 SSW 1017,1 0 0,0
20.09.2018 02:00:00 17,9 7,9 11 6 22 12 S 1017,3 0 0,0
20.09.2018 01:00:00 18,0 7,7 10 5 20 11 S 1017,7 0 0,0
20.09.2018 00:00:00 18,6 6,8 11 6 21 11 S 1018,1 0 0,0
19.09.2018 23:00:00 19,2 6,8 11 6 26 14 SSW 1018,1 0 0,0
19.09.2018 22:00:00 19,6 6,4 12 7 25 13 S 1018,0 0 0,0
19.09.2018 21:00:00 20,3 6,2 13 7 23 12 SSW 1017,6 0 0,0
19.09.2018 20:00:00 20,9 5,4 14 8 30 16 SSW 1017,5 1 0,0
19.09.2018 19:00:00 22,0 4,7 16 8 39 21 SSW 1017,2 37 0,0
19.09.2018 18:00:00 23,4 3,7 21 11 41 22 WSW 1016,8 41 0,0
19.09.2018 17:00:00 24,0 3,0 21 11 44 24 SW 1016,7 55 0,0
19.09.2018 16:00:00 24,0 3,3 19 10 50 27 SW 1016,6 60 0,0
19.09.2018 15:00:00 23,8 4,3 18 10 40 22 SSW 1016,6 59 0,0
19.09.2018 14:00:00 23,1 5,1 18 10 43 23 SW 1017,0 60 0,0
19.09.2018 13:00:00 22,0 7,2 17 9 43 23 WSW 1017,0 46 0,0
19.09.2018 12:00:00 20,7 8,5 19 10 41 22 SW 1017,4 51 0,0
19.09.2018 11:00:00 20,4 12,3 18 10 37 20 SSW 1016,9 60 0,0
19.09.2018 10:00:00 19,0 14,0 17 9 35 19 SSW 1016,6 60 0,0
19.09.2018 09:00:00 17,8 14,5 18 10 31 17 SSW 1016,3 54 0,0
19.09.2018 08:00:00 17,2 14,3 18 10 35 19 S 1015,7 0 0,0
19.09.2018 07:00:00 16,3 14,1 15 8 22 12 S 1015,8 0 0,0
19.09.2018 06:00:00 15,8 13,5 11 6 19 10 S 1016,0 0 0,1
19.09.2018 05:00:00 15,9 13,0 16 8 24 13 SSE 1016,3 0 0,0
19.09.2018 04:00:00 15,7 12,9 16 9 22 12 SSE 1015,9 0 0,0
19.09.2018 03:00:00 14,6 11,8 9 5 13 7 SE 1016,4 0 0,0
19.09.2018 02:00:00 15,5 12,6 11 6 13 7 SSE 1016,3 0 0,0
19.09.2018 01:00:00 15,3 11,8 8 4 11 6 SSE 1016,5 0 0,0
19.09.2018 00:00:00 16,7 12,2 6 3 8 5 S 1016,3 0 0,0
18.09.2018 23:00:00 17,6 8,7 5 3 16 9 S 1016,1 0 0,0
18.09.2018 22:00:00 19,5 8,0 8 5 18 10 W 1015,9 0 0,0
18.09.2018 21:00:00 20,3 7,4 9 5 21 11 W 1015,2 0 0,0
18.09.2018 20:00:00 21,7 6,1 11 6 25 14 W 1014,5 0 0,0
18.09.2018 19:00:00 23,7 3,7 14 7 32 17 WSW 1013,9 60 0,0
18.09.2018 18:00:00 24,5 3,6 16 9 32 18 WSW 1013,5 58 0,0
18.09.2018 17:00:00 25,1 3,5 16 9 42 23 SW 1013,4 53 0,0
18.09.2018 16:00:00 25,4 3,2 23 12 45 25 SW 1013,2 60 0,0
18.09.2018 15:00:00 25,1 3,1 19 10 44 24 WSW 1012,8 60 0,0
18.09.2018 14:00:00 25,0 3,7 22 12 38 21 SW 1012,5 60 0,0
18.09.2018 13:00:00 24,7 4,0 15 8 34 18 SW 1012,2 60 0,0
18.09.2018 12:00:00 23,6 4,4 17 9 32 18 SSW 1012,2 60 0,0
18.09.2018 11:00:00 22,2 3,7 18 10 39 21 SSW 1012,1 60 0,0
18.09.2018 10:00:00 21,5 3,6 18 10 38 20 SW 1011,8 60 0,0
18.09.2018 09:00:00 20,5 3,5 16 8 28 15 SSW 1011,4 60 0,0
18.09.2018 08:00:00 18,8 2,7 14 8 - - S 1010,6 3 0,0
18.09.2018 07:00:00 18,6 2,4 24 13 38 20 SSE 1010,2 0 0,0
18.09.2018 06:00:00 18,4 2,8 23 13 36 19 SSE 1010,3 0 0,0
18.09.2018 05:00:00 18,1 2,4 23 12 36 20 SSE 1010,6 0 0,0
18.09.2018 04:00:00 18,2 1,0 23 13 37 20 SSE 1010,9 0 0,0
18.09.2018 03:00:00 18,5 -0,5 23 13 33 18 SSE 1011,4 0 0,0
18.09.2018 02:00:00 18,4 -1,1 22 12 31 17 SSE 1012,0 0 0,0
18.09.2018 01:00:00 18,2 -0,5 20 11 27 14 SSE 1012,6 0 0,0
18.09.2018 00:00:00 15,2 1,6 16 9 20 11 SE 1013,1 0 0,0
17.09.2018 23:00:00 15,5 0,5 13 7 18 10 SE 1013,6 0 0,0
17.09.2018 22:00:00 16,2 -0,7 13 7 17 9 SE 1014,1 0 0,0
17.09.2018 21:00:00 17,4 -0,7 11 6 14 8 SE 1014,4 0 0,0
17.09.2018 20:00:00 20,2 -2,4 11 6 11 6 SE 1014,6 19 0,0
17.09.2018 19:00:00 24,4 -9,7 8 4 15 8 S 1014,6 60 0,0
17.09.2018 18:00:00 26,0 -8,8 9 5 19 10 S 1015,1 60 0,0
17.09.2018 17:00:00 26,0 -7,7 14 7 23 12 S 1015,8 60 0,0
17.09.2018 16:00:00 25,5 -5,6 9 5 24 13 S 1016,6 60 0,0
17.09.2018 15:00:00 25,1 -5,1 11 6 21 12 SW 1017,3 60 0,0
17.09.2018 14:00:00 23,7 -3,2 14 8 22 12 S 1018,1 60 0,0
17.09.2018 13:00:00 22,8 -0,7 13 7 21 11 S 1018,6 60 0,0
17.09.2018 12:00:00 21,4 1,2 13 7 20 11 S 1019,1 60 0,0
17.09.2018 11:00:00 19,1 4,5 5 3 13 7 S 1019,4 60 0,0
17.09.2018 10:00:00 16,5 5,9 6 3 10 5 S 1019,6 60 0,0
17.09.2018 09:00:00 13,6 9,7 5 3 11 6 S 1019,8 49 0,0
17.09.2018 08:00:00 11,0 7,6 7 4 12 6 SE 1019,6 0 0,0
17.09.2018 07:00:00 11,9 8,0 7 4 14 8 SSE 1019,0 0 0,0
17.09.2018 06:00:00 12,1 8,4 7 4 12 6 SSE 1019,4 0 0,0
17.09.2018 05:00:00 12,4 8,9 6 4 10 6 S 1019,8 0 0,0
17.09.2018 04:00:00 12,3 9,0 8 4 10 5 SSE 1019,4 0 0,0
17.09.2018 03:00:00 12,4 8,3 5 3 9 5 SSW 1019,8 0 0,0
17.09.2018 02:00:00 13,2 8,9 7 4 9 5 S 1019,9 0 0,0
17.09.2018 01:00:00 13,5 7,8 7 4 10 6 S 1019,8 0 0,0
17.09.2018 00:00:00 14,0 7,2 8 4 10 5 S 1019,9 0 0,0
16.09.2018 23:00:00 14,4 7,2 5 3 6 3 SSW 1020,2 0 0,0
16.09.2018 22:00:00 15,2 6,4 4 2 6 4 WSW 1020,2 0 0,0
16.09.2018 21:00:00 17,0 3,3 4 2 9 5 W 1019,9 0 0,0
16.09.2018 20:00:00 20,0 1,1 4 2 10 6 W 1019,3 37 0,0
16.09.2018 19:00:00 21,2 0,0 5 3 11 6 WSW 1019,1 5 0,0
16.09.2018 18:00:00 22,2 -1,5 6 4 16 9 SW 1019,0 40 0,0
16.09.2018 17:00:00 22,5 -2,0 9 5 17 9 SSW 1019,4 40 0,0
16.09.2018 16:00:00 22,6 -1,3 7 4 18 10 S 1019,8 31 0,0
16.09.2018 15:00:00 22,4 -1,6 8 5 20 11 SW 1020,3 59 0,0
16.09.2018 14:00:00 22,3 -0,1 7 4 21 11 SW 1021,1 59 0,0
16.09.2018 13:00:00 21,3 0,0 10 6 21 11 S 1021,4 60 0,0
16.09.2018 12:00:00 19,6 3,1 12 7 20 11 SSE 1022,1 55 0,0
16.09.2018 11:00:00 18,6 4,7 13 7 23 13 SSE 1022,4 60 0,0
16.09.2018 10:00:00 16,3 10,0 12 6 19 10 S 1022,5 60 0,0
16.09.2018 09:00:00 13,1 10,2 4 2 16 8 S 1022,6 58 0,0
16.09.2018 08:00:00 10,3 8,2 7 4 14 8 SSE 1022,5 4 0,0
16.09.2018 07:00:00 10,0 8,0 8 5 15 8 SE 1022,7 0 0,0
16.09.2018 06:00:00 10,2 8,2 8 5 11 6 SE 1022,6 0 0,0
16.09.2018 05:00:00 10,5 8,2 9 5 12 7 SSE 1022,7 0 0,0
16.09.2018 04:00:00 11,1 8,6 8 4 10 6 SE 1023,2 0 0,0
16.09.2018 03:00:00 11,4 8,6 8 4 9 5 SSE 1023,7 0 0,0
16.09.2018 02:00:00 11,8 9,0 7 4 8 4 SSE 1024,3 0 0,0
16.09.2018 01:00:00 12,3 9,2 5 3 8 5 SSE 1024,7 0 0,0
16.09.2018 00:00:00 13,0 9,7 8 4 9 5 E 1024,8 0 0,0
15.09.2018 23:00:00 13,7 9,1 6 4 8 5 E 1024,6 0 0,0
15.09.2018 22:00:00 14,7 6,1 5 3 7 4 NE 1024,8 0 0,0
15.09.2018 21:00:00 15,2 5,8 4 2 4 2 S 1024,5 0 0,0
15.09.2018 20:00:00 16,7 2,9 4 2 11 6 W 1024,0 0 0,0
15.09.2018 19:00:00 18,9 1,1 5 3 13 7 W 1023,9 17 0,0
15.09.2018 18:00:00 19,4 1,2 6 3 17 9 WNW 1023,9 38 0,0
15.09.2018 17:00:00 20,1 1,7 6 3 20 11 SW 1024,2 41 0,0
15.09.2018 16:00:00 19,6 2,8 6 4 21 11 W 1024,4 13 0,0
15.09.2018 15:00:00 19,2 3,3 9 5 19 11 WSW 1024,5 23 0,0
15.09.2018 14:00:00 18,3 3,6 11 6 22 12 W 1024,8 14 0,0
15.09.2018 13:00:00 18,2 4,1 11 6 23 12 WSW 1025,0 41 0,0
15.09.2018 12:00:00 17,0 10,4 11 6 23 12 WSW 1025,0 49 0,0
15.09.2018 11:00:00 15,6 11,4 7 4 16 9 W 1024,9 56 0,0
15.09.2018 10:00:00 13,8 11,1 8 4 16 9 SW 1024,5 60 0,0

tt = Température de l'air
td = dewpoint
ff = Vitesse du vent
fx = gusts
dd = Direction du vent
ppp = reduced air pressure
sd = Ensoleillement
rr = Quantités de précipitations

stations d'obs. à proximité